createdAt,value
2023-03-24T00:00:20.453Z,99556.59
2023-03-24T00:02:51.433Z,99538.66
2023-03-24T00:05:20.480Z,99532.06
2023-03-24T00:10:22.720Z,99560.06
2023-03-24T00:12:50.983Z,99537.31
2023-03-24T00:15:21.104Z,99564.81
2023-03-24T00:17:51.013Z,99565.03
2023-03-24T00:20:20.461Z,99571.41
2023-03-24T00:22:50.892Z,99582.44
2023-03-24T00:25:19.736Z,99580.09
2023-03-24T00:27:48.976Z,99590.91
2023-03-24T00:30:17.867Z,99581.69
2023-03-24T00:32:46.414Z,99595.09
2023-03-24T00:35:16.543Z,99597.81
2023-03-24T00:37:44.852Z,99601.53
2023-03-24T00:40:14.381Z,99603.53
2023-03-24T00:42:46.071Z,99605.44
2023-03-24T00:45:15.168Z,99610.06
2023-03-24T00:47:44.962Z,99609.31
2023-03-24T00:50:16.954Z,99611.16
2023-03-24T00:52:48.023Z,99606.94
2023-03-24T00:55:16.221Z,99606.13
2023-03-24T00:57:50.284Z,99610.56
2023-03-24T01:00:20.460Z,99607.06
2023-03-24T01:02:48.867Z,99616.81
2023-03-24T01:05:21.047Z,99613.63
2023-03-24T01:07:52.342Z,99618.94
2023-03-24T01:10:26.936Z,99594.91
2023-03-24T01:12:56.243Z,99617.41
2023-03-24T01:15:26.484Z,99617.69
2023-03-24T01:17:54.598Z,99611.72
2023-03-24T01:20:24.284Z,99616.16
2023-03-24T01:22:52.270Z,99614.53
2023-03-24T01:25:21.381Z,99594.44
2023-03-24T01:27:49.784Z,99609.03
2023-03-24T01:30:18.843Z,99619.78
2023-03-24T01:32:47.083Z,99619.13
2023-03-24T01:35:15.045Z,99617.56
2023-03-24T01:37:44.440Z,99616.16
2023-03-24T01:40:13.285Z,99612.16
2023-03-24T01:42:41.156Z,99613.00
2023-03-24T01:45:53.887Z,99620.28
2023-03-24T01:48:23.770Z,99619.63
2023-03-24T01:50:53.217Z,99614.44
2023-03-24T01:53:23.033Z,99629.50
2023-03-24T01:55:51.156Z,99624.47
2023-03-24T01:58:19.086Z,99620.19
2023-03-24T02:00:47.488Z,99620.28
2023-03-24T02:03:18.412Z,99623.88
2023-03-24T02:05:47.716Z,99620.34
2023-03-24T02:08:19.040Z,99629.19
2023-03-24T02:10:48.326Z,99619.78
2023-03-24T02:13:16.431Z,99626.03
2023-03-24T02:15:48.160Z,99620.81
2023-03-24T02:18:21.174Z,99623.66
2023-03-24T02:21:22.655Z,99624.63
2023-03-24T02:24:22.167Z,99619.63
2023-03-24T02:27:02.239Z,99627.53
2023-03-24T02:30:08.271Z,99627.69
2023-03-24T02:33:14.128Z,99625.53
2023-03-24T02:36:17.405Z,99627.28
2023-03-24T02:39:09.337Z,99618.59
2023-03-24T02:41:39.290Z,99621.38
2023-03-24T02:44:08.678Z,99615.03
2023-03-24T02:46:37.884Z,99615.19
2023-03-24T02:49:11.232Z,99613.13
2023-03-24T02:51:41.143Z,99622.72
2023-03-24T02:54:10.668Z,99621.84
2023-03-24T02:56:40.452Z,99628.28
2023-03-24T02:59:09.262Z,99611.88
2023-03-24T03:01:41.346Z,99622.78
2023-03-24T03:04:10.381Z,99616.56
2023-03-24T03:06:40.894Z,99619.97
2023-03-24T03:09:11.333Z,99621.69
2023-03-24T03:11:40.820Z,99613.13
2023-03-24T03:14:10.350Z,99612.38
2023-03-24T03:16:40.021Z,99619.88
2023-03-24T03:19:10.810Z,99626.03
2023-03-24T03:21:41.476Z,99602.03
2023-03-24T03:24:11.118Z,99626.13
2023-03-24T03:26:40.420Z,99617.75
2023-03-24T03:29:13.157Z,99628.88
2023-03-24T03:31:42.958Z,99629.66
2023-03-24T03:34:12.827Z,99633.22
2023-03-24T03:36:43.160Z,99635.72
2023-03-24T03:39:13.878Z,99647.09
2023-03-24T03:41:43.143Z,99642.72
2023-03-24T03:44:11.072Z,99641.09
2023-03-24T03:46:39.031Z,99640.59
2023-03-24T03:49:07.702Z,99644.03
2023-03-24T03:51:35.600Z,99645.00
2023-03-24T03:54:04.904Z,99641.47
2023-03-24T03:56:33.909Z,99649.44
2023-03-24T03:59:04.191Z,99643.47
2023-03-24T04:01:34.259Z,99643.38
2023-03-24T04:04:12.583Z,99656.53
2023-03-24T04:06:44.319Z,99642.59
2023-03-24T04:09:24.268Z,99649.25
2023-03-24T04:11:59.009Z,99633.59
2023-03-24T04:14:42.936Z,99617.09
2023-03-24T04:17:14.181Z,99639.03
2023-03-24T04:19:49.307Z,99653.19
2023-03-24T04:22:25.148Z,99647.88
2023-03-24T04:24:54.818Z,99633.41
2023-03-24T04:27:27.492Z,99643.41
2023-03-24T04:30:02.865Z,99644.94
2023-03-24T04:32:32.505Z,99647.22
2023-03-24T04:35:01.949Z,99638.22
2023-03-24T04:37:32.790Z,99651.63
2023-03-24T04:40:00.871Z,99651.44
2023-03-24T04:42:29.848Z,99649.44
2023-03-24T04:44:59.151Z,99654.47
2023-03-24T04:47:27.797Z,99643.97
2023-03-24T04:50:01.876Z,99649.16
2023-03-24T04:52:29.729Z,99626.66
2023-03-24T04:54:57.609Z,99647.28
2023-03-24T04:57:26.571Z,99653.38
2023-03-24T04:59:54.452Z,99655.94
2023-03-24T05:02:23.710Z,99652.22
2023-03-24T05:04:51.644Z,99649.56
2023-03-24T05:07:19.505Z,99654.91
2023-03-24T05:09:47.380Z,99645.69
2023-03-24T05:12:15.306Z,99652.44
2023-03-24T05:14:43.274Z,99652.22
2023-03-24T05:17:11.159Z,99642.38
2023-03-24T05:19:40.462Z,99640.56
2023-03-24T05:22:08.406Z,99594.53
2023-03-24T05:24:36.338Z,99649.28
2023-03-24T05:27:04.291Z,99643.03
2023-03-24T05:29:32.571Z,99647.97
2023-03-24T05:32:00.926Z,99641.72
2023-03-24T05:34:28.833Z,99642.09
2023-03-24T05:36:58.603Z,99639.31
2023-03-24T05:39:27.219Z,99637.72
2023-03-24T05:41:55.418Z,99650.25
2023-03-24T05:44:23.626Z,99665.63
2023-03-24T05:46:51.785Z,99656.16
2023-03-24T05:49:19.783Z,99661.00
2023-03-24T05:51:48.008Z,99660.41
2023-03-24T05:54:17.273Z,99667.63
2023-03-24T05:56:45.853Z,99670.44
2023-03-24T05:59:13.982Z,99652.31
2023-03-24T06:01:42.974Z,99664.28
2023-03-24T06:04:11.428Z,99660.88
2023-03-24T06:06:41.073Z,99667.69
2023-03-24T06:09:08.980Z,99659.25
2023-03-24T06:11:38.234Z,99673.88
2023-03-24T06:14:08.933Z,99673.59
2023-03-24T06:16:39.636Z,99672.56
2023-03-24T06:19:07.805Z,99683.78
2023-03-24T06:21:35.732Z,99679.97
2023-03-24T06:24:04.413Z,99680.44
2023-03-24T06:26:32.640Z,99656.97
2023-03-24T06:29:02.157Z,99685.09
2023-03-24T06:31:30.825Z,99685.56
2023-03-24T06:33:59.045Z,99676.44
2023-03-24T06:36:27.014Z,99683.88
2023-03-24T06:38:54.895Z,99676.38
2023-03-24T06:41:22.813Z,99682.25
2023-03-24T06:43:50.690Z,99689.94
2023-03-24T06:46:19.964Z,99680.81
2023-03-24T06:48:49.222Z,99692.91
2023-03-24T06:51:17.211Z,99689.06
2023-03-24T06:53:45.945Z,99687.81
2023-03-24T06:56:17.149Z,99689.34
2023-03-24T06:58:45.373Z,99692.78
2023-03-24T07:01:14.891Z,99695.78
2023-03-24T07:03:44.953Z,99694.44
2023-03-24T07:06:13.383Z,99696.63
2023-03-24T07:08:41.527Z,99690.66
2023-03-24T07:11:10.302Z,99702.31
2023-03-24T07:13:38.356Z,99698.19
2023-03-24T07:16:06.996Z,99693.53
2023-03-24T07:18:35.027Z,99677.19
2023-03-24T07:21:04.939Z,99697.81
2023-03-24T07:23:33.221Z,99701.47
2023-03-24T07:26:01.956Z,99703.16
2023-03-24T07:28:30.140Z,99698.38
2023-03-24T07:30:59.530Z,99695.31
2023-03-24T07:33:27.598Z,99698.13
2023-03-24T07:35:57.541Z,99688.75
2023-03-24T07:38:27.295Z,99693.03
2023-03-24T07:40:55.346Z,99687.47
2023-03-24T07:43:24.012Z,99695.16
2023-03-24T07:45:52.355Z,99679.69
2023-03-24T07:48:20.501Z,99684.91
2023-03-24T07:50:48.453Z,99692.81
2023-03-24T07:53:20.143Z,99696.44
2023-03-24T07:55:50.250Z,99698.03
2023-03-24T07:58:18.268Z,99693.69
2023-03-24T08:00:46.329Z,99691.34
2023-03-24T08:03:15.568Z,99687.25
2023-03-24T08:05:44.482Z,99691.97
2023-03-24T08:08:12.736Z,99684.38
2023-03-24T08:10:40.833Z,99694.41
2023-03-24T08:13:10.230Z,99694.75
2023-03-24T08:15:38.213Z,99704.66
2023-03-24T08:18:06.504Z,99690.25
2023-03-24T08:20:34.448Z,99690.31
2023-03-24T08:23:04.953Z,99695.75
2023-03-24T08:25:33.022Z,99690.31
2023-03-24T08:28:00.915Z,99701.31
2023-03-24T08:30:30.557Z,99669.59
2023-03-24T08:32:59.560Z,99705.22
2023-03-24T08:35:31.502Z,99702.59
2023-03-24T08:37:59.721Z,99702.34
2023-03-24T08:40:28.541Z,99716.44
2023-03-24T08:42:57.865Z,99719.31
2023-03-24T08:45:27.636Z,99713.97
2023-03-24T08:48:00.322Z,99733.66
2023-03-24T08:50:30.103Z,99723.09
2023-03-24T08:52:58.035Z,99729.06
2023-03-24T08:55:26.456Z,99733.44
2023-03-24T08:57:57.378Z,99717.34
2023-03-24T09:00:25.747Z,99738.22
2023-03-24T09:02:54.963Z,99732.06
2023-03-24T09:05:36.609Z,99735.16
2023-03-24T09:08:11.669Z,99737.69
2023-03-24T09:10:40.123Z,99746.81
2023-03-24T09:13:07.962Z,99750.03
2023-03-24T09:15:36.188Z,99748.69
2023-03-24T09:18:04.172Z,99760.03
2023-03-24T09:20:33.825Z,99751.03
2023-03-24T09:23:01.704Z,99748.59
2023-03-24T09:25:29.603Z,99757.41
2023-03-24T09:27:57.591Z,99731.59
2023-03-24T09:30:25.494Z,99742.97
2023-03-24T09:32:53.475Z,99747.38
2023-03-24T09:35:22.448Z,99754.84
2023-03-24T09:37:51.880Z,99752.56
2023-03-24T09:40:21.860Z,99752.63
2023-03-24T09:42:52.623Z,99754.94
2023-03-24T09:45:22.124Z,99748.38
2023-03-24T09:47:51.357Z,99764.16
2023-03-24T09:50:23.001Z,99757.56
2023-03-24T09:52:54.733Z,99749.31
2023-03-24T09:55:24.669Z,99757.00
2023-03-24T09:57:53.289Z,99761.16
2023-03-24T10:00:24.405Z,99756.56
2023-03-24T10:02:54.834Z,99757.91
2023-03-24T10:05:27.946Z,99754.06
2023-03-24T10:07:58.668Z,99753.69
2023-03-24T10:10:31.250Z,99754.81
2023-03-24T10:13:01.479Z,99757.56
2023-03-24T10:15:37.769Z,99757.69
2023-03-24T10:18:16.018Z,99756.22
2023-03-24T10:23:22.898Z,99761.59
2023-03-24T10:25:53.147Z,99759.53
2023-03-24T10:28:21.620Z,99765.97
2023-03-24T10:30:49.847Z,99764.16
2023-03-24T10:33:17.799Z,99757.19
2023-03-24T10:35:49.621Z,99744.28
2023-03-24T10:38:21.097Z,99763.25
2023-03-24T10:40:49.473Z,99767.41
2023-03-24T10:43:18.833Z,99753.50
2023-03-24T10:45:49.085Z,99748.25
2023-03-24T10:48:35.964Z,99769.34
2023-03-24T10:51:06.005Z,99769.75
2023-03-24T10:53:35.300Z,99762.56
2023-03-24T10:56:03.787Z,99764.41
2023-03-24T10:58:37.280Z,99764.03
2023-03-24T11:01:21.435Z,99759.78
2023-03-24T11:03:49.540Z,99755.75
2023-03-24T11:06:18.690Z,99753.34
2023-03-24T11:08:48.268Z,99760.47
2023-03-24T11:11:22.968Z,99746.78
2023-03-24T11:13:55.810Z,99745.94
2023-03-24T11:16:28.689Z,99767.50
2023-03-24T11:18:57.849Z,99764.84
2023-03-24T11:21:27.194Z,99769.63
2023-03-24T11:23:58.887Z,99764.06
2023-03-24T11:26:31.195Z,99746.88
2023-03-24T11:28:59.790Z,99747.38
2023-03-24T11:31:30.666Z,99750.31
2023-03-24T11:33:59.395Z,99749.44
2023-03-24T11:36:47.059Z,99755.53
2023-03-24T11:39:19.092Z,99736.66
2023-03-24T11:42:01.164Z,99750.69
2023-03-24T11:44:32.526Z,99770.16
2023-03-24T11:47:02.394Z,99766.97
2023-03-24T11:49:36.236Z,99748.34
2023-03-24T11:52:04.556Z,99761.00
2023-03-24T11:54:35.423Z,99754.00
2023-03-24T11:57:05.624Z,99760.19
2023-03-24T11:59:39.300Z,99756.31
2023-03-24T12:02:13.638Z,99749.13
2023-03-24T12:04:58.336Z,99762.16
2023-03-24T12:07:53.433Z,99763.88
2023-03-24T12:10:28.674Z,99760.25
2023-03-24T12:13:02.275Z,99757.19
2023-03-24T12:15:35.328Z,99742.88
2023-03-24T12:18:10.883Z,99761.84
2023-03-24T12:20:39.387Z,99761.84
2023-03-24T12:23:10.206Z,99749.22
2023-03-24T12:25:44.176Z,99759.00
2023-03-24T12:28:31.595Z,99757.31
2023-03-24T12:31:05.208Z,99759.63
2023-03-24T12:33:39.628Z,99765.66
2023-03-24T12:36:24.233Z,99719.44
2023-03-24T12:39:00.195Z,99774.13
2023-03-24T12:41:57.616Z,99752.38
2023-03-24T12:44:44.570Z,99750.72
2023-03-24T12:47:20.161Z,99765.50
2023-03-24T12:49:54.761Z,99775.97
2023-03-24T12:53:07.560Z,99743.34
2023-03-24T12:55:39.613Z,99734.22
2023-03-24T12:58:12.457Z,99734.72
2023-03-24T13:00:45.241Z,99715.34
2023-03-24T13:03:14.120Z,99747.50
2023-03-24T13:05:44.593Z,99729.00
2023-03-24T13:08:16.764Z,99743.50
2023-03-24T13:10:44.736Z,99728.91
2023-03-24T13:13:17.344Z,99752.28
2023-03-24T13:15:47.855Z,99756.56
2023-03-24T13:18:22.742Z,99748.31
2023-03-24T13:20:52.458Z,99737.41
2023-03-24T13:23:32.532Z,99745.91
2023-03-24T13:26:02.618Z,99742.53
2023-03-24T13:28:33.479Z,99750.16
2023-03-24T13:31:01.835Z,99737.25
2023-03-24T13:33:31.458Z,99735.84
2023-03-24T13:36:07.833Z,99725.22
2023-03-24T13:38:37.013Z,99725.81
2023-03-24T13:41:05.337Z,99720.84
2023-03-24T13:43:34.916Z,99723.44
2023-03-24T13:46:03.280Z,99731.78
2023-03-24T13:48:33.821Z,99715.47
2023-03-24T13:51:02.430Z,99721.72
2023-03-24T13:53:36.508Z,99724.38
2023-03-24T13:56:05.892Z,99721.69
2023-03-24T13:59:06.570Z,99724.63
2023-03-24T14:01:36.546Z,99696.03
2023-03-24T14:04:24.100Z,99722.81
2023-03-24T14:06:52.208Z,99739.56
2023-03-24T14:09:22.337Z,99727.09
2023-03-24T14:12:09.957Z,99730.94
2023-03-24T14:15:04.086Z,99726.66
2023-03-24T14:17:32.067Z,99736.72
2023-03-24T14:20:13.377Z,99725.28
2023-03-24T14:22:42.232Z,99721.56
2023-03-24T14:25:22.455Z,99730.00
2023-03-24T14:27:50.795Z,99723.72
2023-03-24T14:30:22.773Z,99720.78
2023-03-24T14:32:52.272Z,99730.75
2023-03-24T14:35:34.102Z,99723.66
2023-03-24T14:38:04.511Z,99726.34
2023-03-24T14:40:36.149Z,99730.28
2023-03-24T14:43:18.007Z,99729.72
2023-03-24T14:46:06.585Z,99739.78
2023-03-24T14:48:38.200Z,99733.69
2023-03-24T14:51:30.027Z,99739.13
2023-03-24T14:53:58.214Z,99733.50
2023-03-24T14:56:26.669Z,99727.41
2023-03-24T14:58:56.310Z,99747.78
2023-03-24T15:01:30.407Z,99751.56
2023-03-24T15:04:01.047Z,99698.47
2023-03-24T15:06:30.086Z,99706.94
2023-03-24T15:08:58.801Z,99716.53
2023-03-24T15:11:27.936Z,99716.84
2023-03-24T15:13:57.409Z,99726.25
2023-03-24T15:16:27.836Z,99730.22
2023-03-24T15:21:29.882Z,99735.16
2023-03-24T15:24:01.543Z,99723.00
2023-03-24T15:26:29.945Z,99722.13
2023-03-24T15:29:04.926Z,99733.59
2023-03-24T15:31:39.194Z,99736.72
2023-03-24T15:34:23.932Z,99724.56
2023-03-24T15:36:55.352Z,99743.25
2023-03-24T15:39:26.790Z,99739.50
2023-03-24T15:41:54.892Z,99729.75
2023-03-24T15:44:25.876Z,99738.50
2023-03-24T15:46:57.329Z,99714.34
2023-03-24T15:49:27.070Z,99731.91
2023-03-24T15:51:59.454Z,99729.91
2023-03-24T15:54:28.293Z,99735.16
2023-03-24T15:57:03.927Z,99735.84
2023-03-24T15:59:36.678Z,99716.75
2023-03-24T16:02:11.979Z,99739.56
2023-03-24T16:04:40.724Z,99720.97
2023-03-24T16:07:09.876Z,99724.16
2023-03-24T16:09:40.878Z,99733.84
2023-03-24T16:12:11.971Z,99742.72
2023-03-24T16:14:40.159Z,99731.56
2023-03-24T16:17:10.171Z,99734.28
2023-03-24T16:19:39.058Z,99745.41
2023-03-24T16:22:10.677Z,99744.50
2023-03-24T16:24:38.823Z,99729.97
2023-03-24T16:27:07.016Z,99758.50
2023-03-24T16:29:34.971Z,99736.66
2023-03-24T16:32:03.208Z,99751.91
2023-03-24T16:34:32.481Z,99765.59
2023-03-24T16:37:00.615Z,99750.78
2023-03-24T16:39:29.417Z,99767.03
2023-03-24T16:41:57.460Z,99756.91
2023-03-24T16:44:25.458Z,99754.41
2023-03-24T16:46:54.317Z,99768.41
2023-03-24T16:49:22.378Z,99758.31
2023-03-24T16:51:52.796Z,99760.34
2023-03-24T16:54:21.542Z,99766.06
2023-03-24T16:56:49.783Z,99766.06
2023-03-24T16:59:17.838Z,99749.84
2023-03-24T17:01:46.583Z,99760.88
2023-03-24T17:04:16.857Z,99761.09
2023-03-24T17:06:47.151Z,99753.34
2023-03-24T17:09:16.560Z,99753.81
2023-03-24T17:11:45.189Z,99771.97
2023-03-24T17:14:13.419Z,99754.19
2023-03-24T17:16:43.617Z,99750.16
2023-03-24T17:19:11.987Z,99761.47
2023-03-24T17:21:41.217Z,99777.88
2023-03-24T17:24:10.778Z,99763.97
2023-03-24T17:26:40.298Z,99771.38
2023-03-24T17:29:08.195Z,99767.06
2023-03-24T17:31:36.338Z,99775.56
2023-03-24T17:34:15.131Z,99775.41
2023-03-24T17:36:49.867Z,99769.09
2023-03-24T17:39:18.347Z,99776.25
2023-03-24T17:41:47.693Z,99773.06
2023-03-24T17:44:15.587Z,99779.94
2023-03-24T17:46:43.525Z,99790.84
2023-03-24T17:49:11.554Z,99769.06
2023-03-24T17:51:39.509Z,99788.50
2023-03-24T17:54:07.732Z,99787.91
2023-03-24T17:56:35.648Z,99787.25
2023-03-24T17:59:05.377Z,99790.16
2023-03-24T18:01:35.109Z,99783.97
2023-03-24T18:04:03.771Z,99790.38
2023-03-24T18:06:31.882Z,99795.84
2023-03-24T18:08:59.761Z,99779.50
2023-03-24T18:11:27.675Z,99783.34
2023-03-24T18:13:55.695Z,99788.09
2023-03-24T18:16:26.728Z,99792.69
2023-03-24T18:18:54.679Z,99780.41
2023-03-24T18:21:22.716Z,99791.91
2023-03-24T18:23:50.683Z,99795.22
2023-03-24T18:26:18.663Z,99790.50
2023-03-24T18:28:46.838Z,99791.28
2023-03-24T18:31:16.672Z,99819.94
2023-03-24T18:33:46.569Z,99803.81
2023-03-24T18:36:16.567Z,99810.09
2023-03-24T18:38:44.534Z,99811.47
2023-03-24T18:41:12.954Z,99813.53
2023-03-24T18:43:41.164Z,99827.19
2023-03-24T18:46:09.957Z,99827.72
2023-03-24T18:48:38.072Z,99834.22
2023-03-24T18:51:07.635Z,99835.84
2023-03-24T18:53:35.513Z,99839.00
2023-03-24T18:56:04.171Z,99827.47
2023-03-24T18:58:32.092Z,99841.31
2023-03-24T19:01:00.041Z,99852.59
2023-03-24T19:03:28.951Z,99856.19
2023-03-24T19:06:01.513Z,99854.97
2023-03-24T19:08:30.902Z,99850.91
2023-03-24T19:10:58.922Z,99859.09
2023-03-24T19:13:26.844Z,99862.81
2023-03-24T19:15:55.288Z,99866.34
2023-03-24T19:18:23.398Z,99854.94
2023-03-24T19:20:52.728Z,99856.66
2023-03-24T19:23:20.631Z,99847.97
2023-03-24T19:25:50.042Z,99859.31
2023-03-24T19:28:18.117Z,99864.66
2023-03-24T19:30:46.373Z,99854.81
2023-03-24T19:33:14.346Z,99864.53
2023-03-24T19:35:42.258Z,99864.53
2023-03-24T19:38:10.965Z,99853.50
2023-03-24T19:40:39.992Z,99856.66
2023-03-24T19:43:09.395Z,99861.13
2023-03-24T19:45:42.597Z,99859.41
2023-03-24T19:48:10.951Z,99858.63
2023-03-24T19:50:39.062Z,99857.03
2023-03-24T19:53:07.026Z,99849.78
2023-03-24T19:55:36.146Z,99856.84
2023-03-24T19:58:04.189Z,99862.28
2023-03-24T20:00:33.646Z,99857.88
2023-03-24T20:03:01.907Z,99852.81
2023-03-24T20:05:30.079Z,99873.88
2023-03-24T20:08:00.067Z,99871.28
2023-03-24T20:10:28.372Z,99858.00
2023-03-24T20:12:56.894Z,99865.09
2023-03-24T20:15:24.818Z,99874.91
2023-03-24T20:17:54.268Z,99877.56
2023-03-24T20:20:22.509Z,99877.84
2023-03-24T20:22:50.527Z,99884.03
2023-03-24T20:25:19.071Z,99873.28
2023-03-24T20:27:47.815Z,99884.03
2023-03-24T20:30:16.738Z,99876.34
2023-03-24T20:32:44.802Z,99890.41
2023-03-24T20:35:14.531Z,99885.38
2023-03-24T20:37:42.584Z,99885.31
2023-03-24T20:40:11.099Z,99877.31
2023-03-24T20:42:39.280Z,99834.94
2023-03-24T20:45:08.464Z,99898.94
2023-03-24T20:47:37.144Z,99903.19
2023-03-24T20:50:06.184Z,99900.91
2023-03-24T20:52:35.654Z,99913.75
2023-03-24T20:55:06.411Z,99902.22
2023-03-24T20:57:34.394Z,99917.06
2023-03-24T21:00:09.733Z,99897.94
2023-03-24T21:02:38.287Z,99870.03
2023-03-24T21:05:07.194Z,99921.16
2023-03-24T21:07:38.495Z,99923.25
2023-03-24T21:10:07.162Z,99945.03
2023-03-24T21:12:35.360Z,99940.56
2023-03-24T21:15:21.207Z,99938.84
2023-03-24T21:17:49.778Z,99896.16
2023-03-24T21:20:19.078Z,99940.66
2023-03-24T21:22:53.637Z,99945.22
2023-03-24T21:25:22.307Z,99936.13
2023-03-24T21:27:50.421Z,99948.09
2023-03-24T21:30:19.456Z,99954.47
2023-03-24T21:32:47.722Z,99964.38
2023-03-24T21:35:15.666Z,99956.47
2023-03-24T21:37:45.858Z,99962.00
2023-03-24T21:40:17.186Z,99955.53
2023-03-24T21:42:46.841Z,99964.16
2023-03-24T21:45:15.717Z,99956.94
2023-03-24T21:47:46.020Z,99954.47
2023-03-24T21:50:19.207Z,99959.69
2023-03-24T21:52:47.876Z,99985.19
2023-03-24T21:55:17.508Z,99974.66
2023-03-24T21:57:46.300Z,99971.88
2023-03-24T22:00:15.732Z,99954.28
2023-03-24T22:02:45.523Z,99966.84
2023-03-24T22:05:14.002Z,99972.91
2023-03-24T22:07:42.126Z,99986.34
2023-03-24T22:10:13.404Z,99999.03
2023-03-24T22:12:43.152Z,99990.34
2023-03-24T22:15:12.015Z,100012.16
2023-03-24T22:17:40.016Z,99993.03
2023-03-24T22:20:11.467Z,100017.66
2023-03-24T22:22:39.541Z,100021.34
2023-03-24T22:25:08.963Z,100018.09
2023-03-24T22:27:38.197Z,100015.38
2023-03-24T22:30:09.920Z,100021.63
2023-03-24T22:32:38.029Z,100026.78
2023-03-24T22:35:06.805Z,100037.44
2023-03-24T22:37:34.899Z,100054.38
2023-03-24T22:40:03.462Z,100054.38
2023-03-24T22:42:31.525Z,100029.34
2023-03-24T22:44:59.418Z,100069.13
2023-03-24T22:47:29.206Z,100069.13
2023-03-24T22:49:57.186Z,100074.47
2023-03-24T22:52:26.229Z,100068.00
2023-03-24T22:54:55.730Z,100068.56
2023-03-24T22:57:23.652Z,100061.53
2023-03-24T22:59:51.541Z,100065.81
2023-03-24T23:02:24.522Z,100071.63
2023-03-24T23:04:55.085Z,100084.94
2023-03-24T23:07:23.245Z,100097.59
2023-03-24T23:09:53.329Z,100078.84
2023-03-24T23:12:21.426Z,100077.91
2023-03-24T23:14:49.310Z,100084.34
2023-03-24T23:17:17.538Z,100077.06
2023-03-24T23:19:45.597Z,100099.72
2023-03-24T23:22:15.127Z,100112.78
2023-03-24T23:24:43.445Z,100095.94
2023-03-24T23:27:11.335Z,100077.53
2023-03-24T23:29:40.372Z,100086.91
2023-03-24T23:32:08.332Z,100096.31
2023-03-24T23:34:38.117Z,100098.03
2023-03-24T23:37:06.115Z,100102.22
2023-03-24T23:39:36.808Z,100110.69
2023-03-24T23:42:04.824Z,100103.47
2023-03-24T23:44:32.724Z,100119.34
2023-03-24T23:47:00.562Z,100102.22
2023-03-24T23:49:28.462Z,100121.72
2023-03-24T23:51:56.293Z,100127.06
2023-03-24T23:54:24.194Z,100134.41
2023-03-24T23:56:53.827Z,100145.56
2023-03-24T23:59:21.798Z,100136.63
